Avon, NY

1:57 AM EDT on September 20, 2014 (GMT -0400)
East | Change Station
CLOSE
Current Station
Personal Weather Station
Location: Avon, NY
Elevation: 922 ft
Nearby Weather Stations

Elev 922 ft 42.88 °N, 77.68 °W | Updated 2 seconds ago

Clear
Clear
60.0 °F
Feels Like 60.0 °F
N
12.0
Wind Variable Wind from South
Gusts 25.0 mph

Today
High -- | Low -- °F
--% Chance of Precip.
Yesterday
High -- | Low -- °F
Precip. -- in
6:56 AM 7:11 PM
Waning Crescent, 14% visible
Pressure 30.13 in
Visibility 10.0 miles
Clouds Few 4000 ft
Dew Point 57 °F
Humidity 91%
Rainfall 0.00 in
Snow Depth Not available.
UV 0 out of 12
Pollen 2.80 out of 12
PM2.5 Good
Flu Activity Not available.
METAR KROC 200454Z 19010KT 10SM FEW040 15/10 A3012 RMK AO2 SLP201 T01500100 401670044

More Conditions Fewer Conditions

Pressure 30.13 in
Visibility 10.0 miles
Clouds Few 4000 ft
Dew Point 57 °F
Humidity 91%
Rainfall 0.00 in
Snow Depth Not available.
UV 0 out of 12
Pollen 2.80 out of 12
PM2.5 Good
Flu Activity Not available.
METAR KROC 200454Z 19010KT 10SM FEW040 15/10 A3012 RMK AO2 SLP201 T01500100 401670044

More Conditions Fewer Conditions

10-Day Weather Forecast

Almanac

Astronomy

Sep. 20, 2014 Rise Set
Actual Time 6:56 AM EDT 7:11 PM EDT
Civil Twilight 6:27 AM EDT 7:40 PM EDT
Nautical Twilight 5:54 AM EDT 8:13 PM EDT
Astronomical Twilight 5:20 AM EDT 8:47 PM EDT
Moon 3:29 AM EDT 5:17 PM EDT
Length of Visible Light 13h 12m
Length of Day
12h 15m
Tomorrow will be 2m 53s shorter.
Waning Crescent, 14% of the Moon is Illuminated
Today
Waning Crescent
Sep 24
New
Oct 1
First Quarter
Oct 8
Full
Oct 15
Last Quarter

Today's Extremes

State Highs State Lows

Community

WunderPhotos

Upload Photos

1,754,777 photos uploaded!

WunderBlogs® & News

Nearby

Air Quality

  Air Quality AQ Index Pollutant
Yesterday Good
OZONE
Yesterday Good
PM2.5
Current Good
PM2.5
Saturday Good
OZONE
Saturday Good
PM2.5
Sunday Good
PM2.5
Sunday Good
OZONE
Monday Good
OZONE
Monday Good
PM2.5

Snow Depth

Station Depth Elevation
No new snow has been reported.

Earthquake Activity

City Distance Mag. Time & Date
No recent earthquake activity has been reported nearby.
Minimum magnitude displayed is 2.5.

Coastal Water Temperatures

Place Temperature
Buffalo, NY 66.9 °F
Alexandria Bay, NY 64.9 °F

Nearby Weather Stations